Time;durP1;ratioP1;P1;durP2;ratioP2;P2;SDS_P1;SDS_P2;PMS_P1;PMS_P2;Temp;Humidity;BMP_temperature;BMP_pressure;BME280_temperature;BME280_humidity;BME280_pressure;Samples;Min_cycle;Max_cycle;Signal;HPM_P1;HPM_P2
2021/11/19 00:02:20;;;;;;;31.67;13.83;;;10.60;97.20;;;;;;5096733;28;20443;-72
2021/11/19 00:04:46;;;;;;;29.10;13.83;;;10.60;97.30;;;;;;5096585;28;20443;-72
2021/11/19 00:07:14;;;;;;;22.33;14.17;;;10.60;97.30;;;;;;5096932;28;20428;-72
2021/11/19 00:09:42;;;;;;;28.00;15.80;;;10.60;97.40;;;;;;5096283;28;20956;-72
2021/11/19 00:12:10;;;;;;;27.40;14.97;;;10.70;97.50;;;;;;5096571;28;20455;-72
2021/11/19 00:14:37;;;;;;;25.73;13.73;;;10.60;97.50;;;;;;5096379;28;20452;-72
2021/11/19 00:17:08;;;;;;;32.17;14.17;;;10.70;97.40;;;;;;5096426;28;20447;-72
2021/11/19 00:19:37;;;;;;;23.50;16.70;;;10.60;97.50;;;;;;5096458;28;20467;-72
2021/11/19 00:22:05;;;;;;;22.90;14.83;;;10.60;97.70;;;;;;5096431;28;20482;-72
2021/11/19 00:24:33;;;;;;;26.13;16.10;;;10.70;97.80;;;;;;5096372;28;20486;-72
2021/11/19 00:27:01;;;;;;;30.83;16.10;;;10.60;97.70;;;;;;5096670;28;20455;-72
2021/11/19 00:29:28;;;;;;;27.27;16.60;;;10.60;97.80;;;;;;5095815;28;20444;-72
2021/11/19 00:31:55;;;;;;;27.43;15.93;;;10.60;98.10;;;;;;5095636;28;20516;-72
2021/11/19 00:34:22;;;;;;;29.13;15.13;;;10.60;98.00;;;;;;5095975;28;20799;-72
2021/11/19 00:36:50;;;;;;;25.67;15.70;;;10.60;98.10;;;;;;5095786;28;20977;-72
2021/11/19 00:39:18;;;;;;;22.17;15.13;;;10.60;98.00;;;;;;5096027;28;20480;-72
2021/11/19 00:41:47;;;;;;;30.77;17.37;;;10.60;98.10;;;;;;5095961;28;20455;-72
2021/11/19 00:44:16;;;;;;;21.63;15.73;;;10.70;98.10;;;;;;5095986;28;20463;-72
2021/11/19 00:46:45;;;;;;;24.00;16.80;;;10.70;98.20;;;;;;5095793;28;20470;-71
2021/11/19 00:49:13;;;;;;;34.63;16.40;;;10.60;98.10;;;;;;5095882;28;20443;-71
2021/11/19 00:51:44;;;;;;;29.00;17.57;;;10.70;98.20;;;;;;5095748;28;20448;-71
2021/11/19 00:54:11;;;;;;;32.77;17.30;;;10.70;98.30;;;;;;5095856;28;20432;-71
2021/11/19 00:56:41;;;;;;;27.37;16.83;;;10.70;98.30;;;;;;5095447;28;20476;-71
2021/11/19 00:59:08;;;;;;;24.43;16.73;;;10.70;98.40;;;;;;5095548;28;20484;-71
2021/11/19 01:01:40;;;;;;;26.73;16.07;;;10.70;98.40;;;;;;5095570;28;20459;-71
2021/11/19 01:04:08;;;;;;;23.37;15.83;;;10.70;98.40;;;;;;5095613;28;20486;-71
2021/11/19 01:06:35;;;;;;;26.67;16.67;;;10.70;98.30;;;;;;5095428;28;20494;-71
2021/11/19 01:09:06;;;;;;;29.33;16.60;;;10.80;98.50;;;;;;5095114;28;20786;-71
2021/11/19 01:11:33;;;;;;;26.20;16.80;;;10.80;98.50;;;;;;5095420;28;20428;-71
2021/11/19 01:14:03;;;;;;;27.20;16.30;;;10.80;98.40;;;;;;5095349;28;20444;-71
2021/11/19 01:16:32;;;;;;;29.17;16.23;;;10.80;98.50;;;;;;5095216;28;20835;-71
2021/11/19 01:19:05;;;;;;;30.23;17.70;;;10.70;98.60;;;;;;5095497;28;20814;-71
2021/11/19 01:21:36;;;;;;;30.57;16.50;;;10.70;98.70;;;;;;5095261;28;20433;-71
2021/11/19 01:24:03;;;;;;;33.50;16.80;;;10.70;98.60;;;;;;5095146;28;20432;-71
2021/11/19 01:26:33;;;;;;;33.60;18.90;;;10.70;98.70;;;;;;5095043;28;20467;-72
2021/11/19 01:29:03;;;;;;;25.30;17.07;;;10.70;98.80;;;;;;5094769;28;20929;-72
2021/11/19 01:31:34;;;;;;;33.10;18.83;;;10.70;98.80;;;;;;5094646;28;20956;-72
2021/11/19 01:34:02;;;;;;;31.10;18.03;;;10.80;98.90;;;;;;5095031;28;20439;-71
2021/11/19 01:36:29;;;;;;;30.87;18.60;;;10.70;99.10;;;;;;5095761;28;20816;-71
2021/11/19 01:38:55;;;;;;;35.00;19.70;;;10.70;99.10;;;;;;5094553;28;20955;-71
2021/11/19 01:41:25;;;;;;;38.33;18.27;;;10.60;99.10;;;;;;5094017;28;20448;-71
2021/11/19 01:43:55;;;;;;;32.60;18.40;;;10.70;99.20;;;;;;5094428;28;20955;-72
2021/11/19 01:46:24;;;;;;;34.40;20.27;;;10.70;99.20;;;;;;5094733;28;20520;-71
2021/11/19 01:48:54;;;;;;;29.00;18.77;;;10.60;99.30;;;;;;5094648;28;20451;-71
2021/11/19 01:51:28;;;;;;;27.33;17.60;;;10.70;99.40;;;;;;5094568;28;20446;-71
2021/11/19 01:54:00;;;;;;;28.77;19.33;;;10.70;99.60;;;;;;5094829;28;20438;-71
2021/11/19 01:56:33;;;;;;;29.60;18.60;;;10.70;99.30;;;;;;5094271;28;20479;-71
2021/11/19 01:59:04;;;;;;;34.97;19.40;;;10.70;99.30;;;;;;5094359;28;20433;-71
2021/11/19 02:01:34;;;;;;;30.27;18.40;;;10.60;99.30;;;;;;5094528;28;20455;-71
2021/11/19 02:04:04;;;;;;;32.80;18.50;;;10.70;99.50;;;;;;5094452;28;20525;-72
2021/11/19 02:06:37;;;;;;;31.70;19.87;;;10.70;99.30;;;;;;5094297;28;20520;-72
2021/11/19 02:09:07;;;;;;;35.10;19.93;;;10.70;99.20;;;;;;5094362;28;20429;-72
2021/11/19 02:11:43;;;;;;;29.70;18.50;;;10.70;99.20;;;;;;5094023;28;20432;-72
2021/11/19 02:14:24;;;;;;;39.97;19.27;;;10.80;99.20;;;;;;5094229;28;20439;-72
2021/11/19 02:16:55;;;;;;;29.10;19.27;;;10.80;99.50;;;;;;5094232;28;20467;-72
2021/11/19 02:19:25;;;;;;;30.70;18.53;;;10.80;99.20;;;;;;5094231;28;20464;-72
2021/11/19 02:21:58;;;;;;;34.67;19.57;;;10.70;99.30;;;;;;5094238;28;20436;-72
2021/11/19 02:24:29;;;;;;;34.50;20.20;;;10.70;99.40;;;;;;5094675;28;20431;-72
2021/11/19 02:27:00;;;;;;;32.43;18.77;;;10.70;99.60;;;;;;5093709;28;20468;-72
2021/11/19 02:29:28;;;;;;;30.20;20.07;;;10.80;99.70;;;;;;5094076;28;20420;-72
2021/11/19 02:31:59;;;;;;;35.77;20.90;;;10.80;99.70;;;;;;5094002;28;20463;-72
2021/11/19 02:34:27;;;;;;;30.03;21.30;;;10.70;99.60;;;;;;5093946;28;20432;-72
2021/11/19 02:37:00;;;;;;;31.00;19.40;;;10.70;99.80;;;;;;5093812;28;20474;-72
2021/11/19 02:39:30;;;;;;;30.50;20.00;;;10.70;99.90;;;;;;5093897;28;20467;-72
2021/11/19 02:42:01;;;;;;;36.30;20.17;;;10.70;99.90;;;;;;5093808;28;20455;-72
2021/11/19 02:44:34;;;;;;;33.20;19.87;;;10.80;99.90;;;;;;5093759;28;20458;-71
2021/11/19 02:47:05;;;;;;;31.40;19.37;;;10.80;99.90;;;;;;5093824;28;20432;-71
2021/11/19 02:49:32;;;;;;;27.73;18.80;;;10.80;99.90;;;;;;5093453;28;20906;-71
2021/11/19 02:52:02;;;;;;;26.97;20.17;;;10.70;99.90;;;;;;5093191;28;20933;-71
2021/11/19 02:54:31;;;;;;;32.50;20.33;;;10.70;99.90;;;;;;5093677;28;20505;-71
2021/11/19 02:56:59;;;;;;;30.10;18.50;;;10.70;99.90;;;;;;5093621;28;20482;-71
2021/11/19 02:59:27;;;;;;;29.40;18.73;;;10.70;99.90;;;;;;5093272;28;20996;-71
2021/11/19 03:02:01;;;;;;;27.90;19.87;;;10.70;99.90;;;;;;5093293;28;20960;-71
2021/11/19 03:04:30;;;;;;;31.53;20.97;;;10.70;99.90;;;;;;5093295;28;20432;-71
2021/11/19 03:07:00;;;;;;;36.73;20.30;;;10.70;99.90;;;;;;5093175;28;21004;-71
2021/11/19 03:09:30;;;;;;;32.90;20.37;;;10.70;99.90;;;;;;5093450;28;20450;-71
2021/11/19 03:11:57;;;;;;;26.10;19.03;;;10.70;99.90;;;;;;5093237;28;20428;-71
2021/11/19 03:14:25;;;;;;;37.23;20.80;;;10.80;99.90;;;;;;5093534;28;20435;-71
2021/11/19 03:16:53;;;;;;;33.97;19.80;;;10.80;99.90;;;;;;5093136;28;20992;-71
2021/11/19 03:19:21;;;;;;;31.97;20.13;;;10.80;99.90;;;;;;5093416;28;20544;-71
2021/11/19 03:21:49;;;;;;;27.10;19.27;;;10.80;99.90;;;;;;5093506;28;20447;-71
2021/11/19 03:24:19;;;;;;;35.90;19.83;;;10.80;99.90;;;;;;5093367;28;20466;-71
2021/11/19 03:26:47;;;;;;;30.10;20.23;;;10.80;99.90;;;;;;5093409;28;20467;-71
2021/11/19 03:29:14;;;;;;;29.37;20.13;;;10.80;99.90;;;;;;5092913;28;20448;-71
2021/11/19 03:31:42;;;;;;;28.63;18.60;;;10.70;99.90;;;;;;5093164;28;20447;-71
2021/11/19 03:34:10;;;;;;;35.23;20.03;;;10.90;99.90;;;;;;5092849;28;20439;-71
2021/11/19 03:36:38;;;;;;;28.53;19.23;;;10.80;99.90;;;;;;5092907;28;20479;-71
2021/11/19 03:39:07;;;;;;;28.93;19.30;;;10.80;99.90;;;;;;5093137;28;20448;-71
2021/11/19 03:41:39;;;;;;;27.47;19.60;;;10.80;99.90;;;;;;5093030;28;20503;-71
2021/11/19 03:44:11;;;;;;;29.07;21.63;;;10.90;99.90;;;;;;5093632;28;20758;-71
2021/11/19 03:46:42;;;;;;;26.37;19.13;;;10.80;99.90;;;;;;5093342;28;20855;-71
2021/11/19 03:49:09;;;;;;;34.67;20.70;;;10.90;99.90;;;;;;5093555;28;20432;-72
2021/11/19 03:51:38;;;;;;;30.57;20.13;;;10.80;99.90;;;;;;5093286;28;20493;-71
2021/11/19 03:54:07;;;;;;;28.97;19.97;;;10.80;99.90;;;;;;5093748;28;20436;-71
2021/11/19 03:56:35;;;;;;;31.40;20.40;;;10.80;99.90;;;;;;5092938;28;20572;-71
2021/11/19 03:59:02;;;;;;;39.27;22.03;;;10.80;99.90;;;;;;5093204;28;20447;-71
2021/11/19 04:01:32;;;;;;;28.63;21.10;;;10.80;99.90;;;;;;5092979;28;20532;-72
2021/11/19 04:03:59;;;;;;;28.70;19.77;;;10.90;99.90;;;;;;5094502;28;20432;-71
2021/11/19 04:06:27;;;;;;;26.93;20.30;;;10.90;99.90;;;;;;5096668;28;20470;-72
2021/11/19 04:08:54;;;;;;;32.17;22.10;;;10.90;99.90;;;;;;5096781;28;20444;-72
2021/11/19 04:11:23;;;;;;;33.00;22.40;;;10.90;99.90;;;;;;5096640;28;20455;-72
2021/11/19 04:13:52;;;;;;;31.30;19.77;;;10.90;99.90;;;;;;5097159;28;20475;-72
2021/11/19 04:16:21;;;;;;;33.27;22.73;;;10.90;99.90;;;;;;5096506;28;20475;-72
2021/11/19 04:18:49;;;;;;;30.80;20.23;;;10.90;99.90;;;;;;5096509;28;20454;-72
2021/11/19 04:21:20;;;;;;;30.57;22.27;;;10.90;99.90;;;;;;5096899;28;20485;-72
2021/11/19 04:23:49;;;;;;;31.67;22.63;;;10.90;99.90;;;;;;5096806;28;20929;-71
2021/11/19 04:26:17;;;;;;;30.60;21.17;;;10.90;99.90;;;;;;5096991;28;20503;-72
2021/11/19 04:28:46;;;;;;;35.77;22.67;;;10.90;99.90;;;;;;5095973;28;20964;-71
2021/11/19 04:31:15;;;;;;;31.20;22.70;;;10.90;99.90;;;;;;5095942;28;20941;-72
2021/11/19 04:33:42;;;;;;;33.93;22.40;;;10.90;99.90;;;;;;5095958;28;20443;-71
2021/11/19 04:36:09;;;;;;;34.27;23.77;;;10.90;99.90;;;;;;5096324;28;20475;-71
2021/11/19 04:38:37;;;;;;;36.00;23.47;;;11.00;99.90;;;;;;5095812;28;20459;-72
2021/11/19 04:41:05;;;;;;;29.13;22.50;;;10.90;99.90;;;;;;5096109;28;20480;-71
2021/11/19 04:43:32;;;;;;;35.50;24.67;;;10.90;99.90;;;;;;5096059;28;20440;-71
2021/11/19 04:46:00;;;;;;;34.43;23.10;;;10.90;99.90;;;;;;5095897;28;20835;-71
2021/11/19 04:48:31;;;;;;;37.83;24.03;;;10.90;99.90;;;;;;5095662;28;20462;-71
2021/11/19 04:51:04;;;;;;;40.43;25.43;;;10.90;99.90;;;;;;5096005;28;20472;-71
2021/11/19 04:53:31;;;;;;;37.97;25.47;;;10.90;99.90;;;;;;5095803;28;20458;-71
2021/11/19 04:55:59;;;;;;;33.60;23.50;;;10.90;99.90;;;;;;5095568;28;20490;-71
2021/11/19 04:58:27;;;;;;;38.33;25.87;;;10.90;99.90;;;;;;5095556;28;20452;-72
2021/11/19 05:00:56;;;;;;;39.10;24.07;;;10.90;99.90;;;;;;5095607;28;20503;-71
2021/11/19 05:03:24;;;;;;;35.60;24.43;;;11.00;99.90;;;;;;5095685;28;20454;-71
2021/11/19 05:05:53;;;;;;;36.87;24.40;;;10.90;99.90;;;;;;5096694;28;20965;-71
2021/11/19 05:08:20;;;;;;;39.97;25.20;;;10.90;99.90;;;;;;5096175;28;20444;-72
2021/11/19 05:10:49;;;;;;;39.13;24.90;;;10.90;99.90;;;;;;5095540;28;20444;-71
2021/11/19 05:13:17;;;;;;;40.43;26.17;;;10.90;99.90;;;;;;5095148;28;20795;-71
2021/11/19 05:15:47;;;;;;;39.80;27.37;;;10.90;99.90;;;;;;5095364;28;20464;-71
2021/11/19 05:18:15;;;;;;;40.87;25.63;;;10.90;99.90;;;;;;5095385;28;20435;-71
2021/11/19 05:20:42;;;;;;;37.23;24.70;;;11.00;99.90;;;;;;5095463;28;20488;-71
2021/11/19 05:23:10;;;;;;;41.87;26.87;;;10.90;99.90;;;;;;5095423;28;20454;-71
2021/11/19 05:25:39;;;;;;;41.30;25.33;;;10.90;99.90;;;;;;5095293;28;20838;-70
2021/11/19 05:28:06;;;;;;;38.33;25.03;;;10.80;99.90;;;;;;5094942;28;20451;-71
2021/11/19 05:30:33;;;;;;;44.00;26.90;;;10.80;99.90;;;;;;5095157;28;20835;-71
2021/11/19 05:33:00;;;;;;;38.07;25.93;;;10.90;99.90;;;;;;5095103;28;20812;-71
2021/11/19 05:35:28;;;;;;;38.53;26.43;;;10.90;99.90;;;;;;5094997;28;20452;-72
2021/11/19 05:37:54;;;;;;;39.47;26.27;;;10.90;99.90;;;;;;5094939;28;20443;-71
2021/11/19 05:40:24;;;;;;;34.63;24.53;;;10.90;99.90;;;;;;5094865;28;20848;-70
2021/11/19 05:42:52;;;;;;;33.57;24.60;;;10.90;99.90;;;;;;5095014;28;20436;-71
2021/11/19 05:45:20;;;;;;;43.70;25.57;;;10.90;99.90;;;;;;5094584;28;21000;-72
2021/11/19 05:47:48;;;;;;;36.57;25.97;;;10.90;99.90;;;;;;5094673;28;20455;-72
2021/11/19 05:50:17;;;;;;;36.00;24.13;;;10.90;99.90;;;;;;5094494;28;21053;-72
2021/11/19 05:52:44;;;;;;;35.20;24.90;;;11.00;99.90;;;;;;5094914;28;20502;-72
2021/11/19 05:55:12;;;;;;;38.93;26.70;;;11.00;99.90;;;;;;5094472;28;20472;-72
2021/11/19 05:57:40;;;;;;;38.23;24.30;;;10.90;99.90;;;;;;5094133;28;20471;-72
2021/11/19 06:00:12;;;;;;;43.93;27.97;;;10.90;99.90;;;;;;5094390;28;20461;-72
2021/11/19 06:02:38;;;;;;;38.37;25.40;;;10.90;99.90;;;;;;5094527;28;20489;-71
2021/11/19 06:05:06;;;;;;;38.50;26.27;;;10.90;99.90;;;;;;5094431;28;20459;-72
2021/11/19 06:07:33;;;;;;;37.13;25.10;;;10.90;99.90;;;;;;5094424;28;20452;-72
2021/11/19 06:10:01;;;;;;;38.43;24.37;;;11.00;99.90;;;;;;5094552;28;20432;-72
2021/11/19 06:12:31;;;;;;;30.43;23.03;;;10.90;99.90;;;;;;5094391;28;20451;-72
2021/11/19 06:15:04;;;;;;;40.03;23.27;;;11.00;99.90;;;;;;5094303;28;20478;-71
2021/11/19 06:17:35;;;;;;;36.10;23.70;;;11.00;99.90;;;;;;5094260;28;20769;-71
2021/11/19 06:20:10;;;;;;;32.20;21.90;;;11.00;99.90;;;;;;5094193;28;20432;-71
2021/11/19 06:22:40;;;;;;;32.43;22.60;;;11.00;99.90;;;;;;5094148;28;20427;-71
2021/11/19 06:25:11;;;;;;;33.97;22.97;;;11.00;99.90;;;;;;5093831;28;20463;-71
2021/11/19 06:27:39;;;;;;;30.83;21.83;;;11.10;99.90;;;;;;5093932;28;20440;-71
2021/11/19 06:30:10;;;;;;;33.50;21.67;;;11.00;99.90;;;;;;5094060;28;20448;-71
2021/11/19 06:32:37;;;;;;;35.23;22.80;;;11.00;99.90;;;;;;5093774;28;20432;-71
2021/11/19 06:35:05;;;;;;;34.40;23.03;;;11.00;99.90;;;;;;5094726;28;20468;-72
2021/11/19 06:37:31;;;;;;;29.20;21.80;;;11.00;99.90;;;;;;5093915;28;20454;-72
2021/11/19 06:39:58;;;;;;;29.37;21.67;;;11.10;99.90;;;;;;5093881;28;20459;-72
2021/11/19 06:42:25;;;;;;;28.73;20.20;;;11.10;99.90;;;;;;5093442;28;20479;-72
2021/11/19 06:44:52;;;;;;;31.37;23.47;;;11.10;99.90;;;;;;5094653;28;20474;-72
2021/11/19 06:47:20;;;;;;;27.80;20.63;;;11.00;99.90;;;;;;5093467;28;20838;-72
2021/11/19 06:49:47;;;;;;;28.77;22.23;;;11.10;99.90;;;;;;5093563;28;20937;-71
2021/11/19 06:52:14;;;;;;;29.60;20.20;;;11.10;99.90;;;;;;5093939;28;20436;-71
2021/11/19 06:54:41;;;;;;;30.30;21.83;;;11.10;99.90;;;;;;5093702;28;20428;-72
2021/11/19 06:57:09;;;;;;;30.10;22.37;;;11.20;99.90;;;;;;5093549;28;20467;-71
2021/11/19 06:59:36;;;;;;;26.50;20.00;;;11.20;99.90;;;;;;5093603;28;20942;-71
2021/11/19 07:02:04;;;;;;;27.43;20.77;;;11.20;99.90;;;;;;5093644;28;20843;-71
2021/11/19 07:04:32;;;;;;;30.10;21.90;;;11.20;99.90;;;;;;5093546;28;20448;-71
2021/11/19 07:06:59;;;;;;;32.73;23.03;;;11.30;99.90;;;;;;5093514;28;20463;-71
2021/11/19 07:09:27;;;;;;;26.83;20.20;;;11.30;99.90;;;;;;5093707;28;20446;-71
2021/11/19 07:11:55;;;;;;;29.27;20.87;;;11.30;99.90;;;;;;5093591;28;20444;-71
2021/11/19 07:14:22;;;;;;;28.07;22.40;;;11.30;99.90;;;;;;5093697;28;20498;-71
2021/11/19 07:16:48;;;;;;;28.80;21.77;;;11.20;99.90;;;;;;5094037;28;20500;-71
2021/11/19 07:19:16;;;;;;;29.23;21.83;;;11.30;99.90;;;;;;5093639;28;20439;-71
2021/11/19 07:21:44;;;;;;;32.00;23.97;;;11.30;99.90;;;;;;5093098;28;20486;-72
2021/11/19 07:24:11;;;;;;;30.33;23.03;;;11.20;99.90;;;;;;5093413;28;20450;-71
2021/11/19 07:26:38;;;;;;;31.90;23.60;;;11.20;99.90;;;;;;5093827;28;20467;-72
2021/11/19 07:29:05;;;;;;;30.93;23.27;;;11.20;99.90;;;;;;5093438;28;20459;-71
2021/11/19 07:31:33;;;;;;;35.37;23.33;;;11.20;99.90;;;;;;5093131;28;20439;-71
2021/11/19 07:34:00;;;;;;;29.40;21.50;;;11.20;99.90;;;;;;5093343;28;20447;-71
2021/11/19 07:36:26;;;;;;;32.70;23.40;;;11.20;99.90;;;;;;5093454;28;20464;-72
2021/11/19 07:38:55;;;;;;;32.00;23.97;;;11.20;99.90;;;;;;5094541;28;20813;-72
2021/11/19 07:41:24;;;;;;;31.30;21.83;;;11.20;99.90;;;;;;5096963;28;21031;-72
2021/11/19 07:43:51;;;;;;;33.50;23.77;;;11.20;99.90;;;;;;5097207;28;20523;-71
2021/11/19 07:46:23;;;;;;;31.43;22.47;;;11.30;99.90;;;;;;5097425;28;20475;-71
2021/11/19 07:48:50;;;;;;;34.50;22.40;;;11.30;99.90;;;;;;5097795;28;20436;-71
2021/11/19 07:51:19;;;;;;;30.13;22.90;;;11.30;99.90;;;;;;5097169;28;20436;-72
2021/11/19 07:53:48;;;;;;;29.53;22.60;;;11.30;99.90;;;;;;5096970;28;20500;-72
2021/11/19 07:56:18;;;;;;;30.00;22.77;;;11.20;99.90;;;;;;5096589;28;20486;-72
2021/11/19 07:58:47;;;;;;;30.83;23.30;;;11.30;99.90;;;;;;5096627;28;20439;-72
2021/11/19 08:01:14;;;;;;;30.90;23.00;;;11.30;99.90;;;;;;5096485;28;21141;-72
2021/11/19 08:03:42;;;;;;;32.70;22.73;;;11.30;99.90;;;;;;5096850;28;20436;-71
2021/11/19 08:06:09;;;;;;;30.87;22.73;;;11.30;99.90;;;;;;5096655;28;20459;-72
2021/11/19 08:08:38;;;;;;;32.73;23.40;;;11.30;99.90;;;;;;5096478;28;20956;-77
2021/11/19 08:11:09;;;;;;;27.93;21.17;;;11.20;99.90;;;;;;5096993;28;20436;-77
2021/11/19 08:13:37;;;;;;;32.00;23.40;;;11.30;99.90;;;;;;5077475;28;20449;-76
2021/11/19 08:16:05;;;;;;;29.50;22.90;;;11.20;99.90;;;;;;5076191;28;20472;-75
2021/11/19 08:18:35;;;;;;;33.20;24.17;;;11.30;99.90;;;;;;5076291;28;20448;-75
2021/11/19 08:21:03;;;;;;;35.00;22.73;;;11.30;99.90;;;;;;5076149;28;20437;-75
2021/11/19 08:23:39;;;;;;;28.27;22.33;;;11.30;99.90;;;;;;5076460;28;20448;-75
2021/11/19 08:26:10;;;;;;;31.23;22.13;;;11.30;99.90;;;;;;5077628;28;20836;-75
2021/11/19 08:28:39;;;;;;;29.37;20.90;;;11.30;99.90;;;;;;5078353;28;20934;-78
2021/11/19 08:31:08;;;;;;;30.20;21.77;;;11.40;99.90;;;;;;5078689;28;20957;-78
2021/11/19 08:33:36;;;;;;;31.77;22.70;;;11.30;99.90;;;;;;5075936;28;20951;-75
2021/11/19 08:36:03;;;;;;;32.07;23.07;;;11.30;99.90;;;;;;5075831;28;20469;-74
2021/11/19 08:38:30;;;;;;;29.70;21.60;;;11.30;99.90;;;;;;5075897;28;20452;-72
2021/11/19 08:40:58;;;;;;;31.73;21.80;;;11.40;99.90;;;;;;5075794;28;20448;-72
2021/11/19 08:43:28;;;;;;;30.07;22.67;;;11.40;99.90;;;;;;5075993;28;20523;-72
2021/11/19 08:45:58;;;;;;;28.70;21.70;;;11.40;99.90;;;;;;5075897;28;20473;-72
2021/11/19 08:48:26;;;;;;;30.77;22.20;;;11.30;99.90;;;;;;5075894;28;20452;-72
2021/11/19 08:50:53;;;;;;;31.47;20.53;;;11.40;99.90;;;;;;5075188;28;20480;-72
2021/11/19 08:53:20;;;;;;;28.43;21.97;;;11.40;99.90;;;;;;5075917;28;20473;-72
2021/11/19 08:55:50;;;;;;;28.97;21.97;;;11.40;99.90;;;;;;5075256;28;20489;-72
2021/11/19 08:58:18;;;;;;;23.73;20.93;;;11.50;99.90;;;;;;5075581;28;20472;-73
2021/11/19 09:00:47;;;;;;;25.83;21.03;;;11.40;99.90;;;;;;5075538;28;20464;-73
2021/11/19 09:03:15;;;;;;;31.20;22.17;;;11.40;99.90;;;;;;5075396;28;20516;-74
2021/11/19 09:05:44;;;;;;;29.47;22.67;;;11.40;99.90;;;;;;5075318;28;20461;-74
2021/11/19 09:08:16;;;;;;;29.80;21.20;;;11.40;99.90;;;;;;5075405;28;20449;-74
2021/11/19 09:10:44;;;;;;;29.40;21.17;;;11.40;99.90;;;;;;5075409;28;20444;-74
2021/11/19 09:13:11;;;;;;;29.13;21.77;;;11.40;99.90;;;;;;5075216;28;20498;-74
2021/11/19 09:15:39;;;;;;;28.40;22.50;;;11.40;99.90;;;;;;5075204;28;20492;-74
2021/11/19 09:18:13;;;;;;;27.37;21.07;;;11.50;99.90;;;;;;5075204;28;20448;-74
2021/11/19 09:20:52;;;;;;;29.70;20.83;;;11.60;99.90;;;;;;5075235;28;20436;-74
2021/11/19 09:23:21;;;;;;;28.70;22.17;;;11.60;99.90;;;;;;5075147;28;20464;-72
2021/11/19 09:25:51;;;;;;;28.70;21.97;;;11.50;99.90;;;;;;5075087;28;20495;-72
2021/11/19 09:28:21;;;;;;;26.00;21.27;;;11.50;99.90;;;;;;5076167;28;20542;-72
2021/11/19 09:30:50;;;;;;;28.97;20.07;;;11.60;99.90;;;;;;5075033;28;20437;-72
2021/11/19 09:33:20;;;;;;;25.33;20.60;;;11.60;99.90;;;;;;5074389;28;20943;-72
2021/11/19 09:35:48;;;;;;;26.57;21.17;;;11.70;99.90;;;;;;5074795;28;20476;-72
2021/11/19 09:38:17;;;;;;;27.33;19.83;;;11.60;99.90;;;;;;5074776;28;20468;-71
2021/11/19 09:40:47;;;;;;;28.50;20.40;;;11.60;99.90;;;;;;5074324;28;20445;-71
2021/11/19 09:43:24;;;;;;;27.30;20.23;;;11.60;99.90;;;;;;5074639;28;20472;-71
2021/11/19 09:46:23;;;;;;;26.50;20.50;;;11.60;99.90;;;;;;5074580;28;20473;-72
2021/11/19 09:49:07;;;;;;;24.27;18.90;;;11.60;99.90;;;;;;5064136;28;20514;-71
2021/11/19 09:52:11;;;;;;;26.03;20.37;;;11.60;99.90;;;;;;5074565;28;20436;-71
2021/11/19 09:55:14;;;;;;;24.07;19.60;;;11.60;99.90;;;;;;5073979;28;20448;-72
2021/11/19 09:58:16;;;;;;;22.67;18.47;;;11.50;99.90;;;;;;5073924;28;20463;-71
2021/11/19 10:01:26;;;;;;;26.27;20.30;;;11.60;99.90;;;;;;5048598;28;20459;-71
2021/11/19 10:04:17;;;;;;;24.63;20.87;;;11.60;99.90;;;;;;5012333;28;20443;-71
2021/11/19 10:06:53;;;;;;;24.70;18.57;;;11.60;99.90;;;;;;5012232;28;20463;-71
2021/11/19 10:09:23;;;;;;;24.37;20.40;;;11.70;99.90;;;;;;5054391;28;20447;-71
2021/11/19 10:11:55;;;;;;;22.07;18.67;;;11.70;99.90;;;;;;5074114;28;20459;-71
2021/11/19 10:14:28;;;;;;;24.43;20.60;;;11.70;99.90;;;;;;5074090;28;20429;-71
2021/11/19 10:17:07;;;;;;;23.87;18.57;;;11.70;99.90;;;;;;5074015;28;20471;-71
2021/11/19 10:19:38;;;;;;;24.33;19.33;;;11.60;99.90;;;;;;5073734;28;20964;-71
2021/11/19 10:22:15;;;;;;;23.63;19.03;;;11.70;99.90;;;;;;5073585;28;20988;-71
2021/11/19 10:24:46;;;;;;;26.33;20.50;;;11.70;99.90;;;;;;5074117;28;20428;-72
2021/11/19 10:27:15;;;;;;;29.53;20.93;;;11.70;99.90;;;;;;5074053;28;20774;-71
2021/11/19 10:29:45;;;;;;;20.20;18.10;;;11.70;99.90;;;;;;5074175;28;20449;-71
2021/11/19 10:32:20;;;;;;;26.97;21.10;;;11.70;99.90;;;;;;5073834;28;20433;-71
2021/11/19 10:34:51;;;;;;;22.87;19.30;;;11.70;99.90;;;;;;5073735;28;20456;-72
2021/11/19 10:37:53;;;;;;;25.93;20.43;;;11.70;99.90;;;;;;5073780;28;20434;-71
2021/11/19 10:40:48;;;;;;;25.23;21.60;;;11.70;99.90;;;;;;5049094;28;20472;-71
2021/11/19 10:43:50;;;;;;;25.20;21.20;;;11.70;99.90;;;;;;5073754;28;20468;-71
2021/11/19 10:46:37;;;;;;;26.63;19.53;;;11.70;99.90;;;;;;5071106;28;20484;-71
2021/11/19 10:49:38;;;;;;;26.57;20.33;;;11.70;99.90;;;;;;5073540;28;20535;-71
2021/11/19 10:52:49;;;;;;;27.47;21.27;;;11.80;99.90;;;;;;5070998;28;20456;-71
2021/11/19 10:55:51;;;;;;;27.40;19.33;;;11.70;99.90;;;;;;5057585;28;20998;-72
2021/11/19 10:58:43;;;;;;;24.67;19.33;;;11.80;99.90;;;;;;5073710;28;20808;-71
2021/11/19 11:01:22;;;;;;;23.27;19.70;;;11.80;99.90;;;;;;5073241;28;20781;-71
2021/11/19 11:04:05;;;;;;;30.17;21.80;;;11.80;99.90;;;;;;5073407;28;20494;-71
2021/11/19 11:06:38;;;;;;;23.53;18.43;;;11.80;99.90;;;;;;5073574;28;20829;-72
2021/11/19 11:09:32;;;;;;;26.97;20.80;;;11.90;99.90;;;;;;5073379;28;20815;-72
2021/11/19 11:12:08;;;;;;;24.17;19.30;;;11.90;99.90;;;;;;5073383;28;20839;-72
2021/11/19 11:14:37;;;;;;;24.67;20.57;;;11.90;99.90;;;;;;5077357;28;21013;-72
2021/11/19 11:17:21;;;;;;;26.60;20.80;;;11.90;99.90;;;;;;5077406;28;20444;-72
2021/11/19 11:19:49;;;;;;;27.90;21.67;;;12.00;99.90;;;;;;5077557;28;20443;-72
2021/11/19 11:22:20;;;;;;;29.00;22.80;;;12.00;99.90;;;;;;5077368;28;20487;-72
2021/11/19 11:24:52;;;;;;;32.90;22.57;;;12.00;99.90;;;;;;5077085;28;21047;-72
2021/11/19 11:27:36;;;;;;;31.20;21.43;;;12.10;99.90;;;;;;5077182;28;20433;-72
2021/11/19 11:30:06;;;;;;;27.97;21.80;;;12.10;99.90;;;;;;5077167;28;20848;-73
2021/11/19 11:32:59;;;;;;;27.63;22.20;;;12.10;99.90;;;;;;5077298;28;20442;-73
2021/11/19 11:35:36;;;;;;;29.83;22.87;;;12.10;99.90;;;;;;5077099;28;20468;-73
2021/11/19 11:38:19;;;;;;;30.23;22.20;;;12.10;99.90;;;;;;5077503;28;20451;-74
2021/11/19 11:41:01;;;;;;;35.97;24.30;;;12.20;99.90;;;;;;5076984;28;20433;-74
2021/11/19 11:43:32;;;;;;;31.00;22.13;;;12.20;99.90;;;;;;5076908;28;20468;-74
2021/11/19 11:46:01;;;;;;;30.17;23.17;;;12.20;99.90;;;;;;5076959;28;20563;-74
2021/11/19 11:48:40;;;;;;;33.47;24.00;;;12.20;99.90;;;;;;5076808;28;20449;-74
2021/11/19 11:51:11;;;;;;;30.83;23.97;;;12.30;99.90;;;;;;5076989;28;20520;-74
2021/11/19 11:53:45;;;;;;;33.00;23.80;;;12.30;99.90;;;;;;5077005;28;20437;-74
2021/11/19 11:56:22;;;;;;;31.57;24.30;;;12.40;99.90;;;;;;5076517;28;20505;-74
2021/11/19 11:59:00;;;;;;;34.13;23.37;;;12.30;99.90;;;;;;5076665;28;20432;-74
2021/11/19 12:01:45;;;;;;;32.57;23.10;;;12.40;99.90;;;;;;5076335;28;20444;-74
2021/11/19 12:04:29;;;;;;;35.90;25.73;;;12.40;99.90;;;;;;5076509;28;20464;-72
2021/11/19 12:07:02;;;;;;;29.50;24.70;;;12.40;99.90;;;;;;5076597;28;20468;-72
2021/11/19 12:09:35;;;;;;;32.90;24.73;;;12.40;99.90;;;;;;5076188;28;20437;-72
2021/11/19 12:12:34;;;;;;;31.17;25.70;;;12.40;99.90;;;;;;5076098;28;20809;-72
2021/11/19 12:15:25;;;;;;;30.43;24.73;;;12.40;99.90;;;;;;5076773;28;20468;-72
2021/11/19 12:17:58;;;;;;;36.97;25.17;;;12.40;99.90;;;;;;5076323;28;20425;-72
2021/11/19 12:20:45;;;;;;;30.60;24.37;;;12.40;99.90;;;;;;5076270;28;20512;-72
2021/11/19 12:23:33;;;;;;;34.50;26.83;;;12.40;99.90;;;;;;5076081;28;20464;-72
2021/11/19 12:26:26;;;;;;;39.57;26.00;;;12.40;99.90;;;;;;5076567;28;20487;-72
2021/11/19 12:29:03;;;;;;;31.40;24.00;;;12.40;99.90;;;;;;5076148;28;20444;-72
2021/11/19 12:31:33;;;;;;;33.03;26.00;;;12.50;99.90;;;;;;5076019;28;20429;-72
2021/11/19 12:34:08;;;;;;;32.47;25.80;;;12.50;99.90;;;;;;5076135;28;20452;-72
2021/11/19 12:36:40;;;;;;;32.40;26.30;;;12.50;99.90;;;;;;5076156;28;20479;-73
2021/11/19 12:39:10;;;;;;;37.33;26.30;;;12.50;99.90;;;;;;5075806;28;20429;-72
2021/11/19 12:41:44;;;;;;;28.83;23.03;;;12.60;99.90;;;;;;5076724;28;20437;-72
2021/11/19 12:44:37;;;;;;;34.47;24.13;;;12.60;99.90;;;;;;5075431;28;20997;-73
2021/11/19 12:47:35;;;;;;;31.60;24.30;;;12.70;99.90;;;;;;5076496;28;20465;-73
2021/11/19 12:50:20;;;;;;;30.90;24.93;;;12.60;99.90;;;;;;5055178;28;20471;-73
2021/11/19 12:52:56;;;;;;;29.43;24.27;;;12.60;99.90;;;;;;5075767;28;20781;-72